sensor_id;sensor_type;location;lat;lon;timestamp;P1;durP1;ratioP1;P2;durP2;ratioP2
36379;SDS011;22411;53.016;18.632;2023-02-15T00:01:52;120.93;;;59.33;;
36379;SDS011;22411;53.016;18.632;2023-02-15T00:04:19;111.37;;;53.73;;
36379;SDS011;22411;53.016;18.632;2023-02-15T00:06:48;104.23;;;53.27;;
36379;SDS011;22411;53.016;18.632;2023-02-15T00:09:14;106.13;;;52.60;;
36379;SDS011;22411;53.016;18.632;2023-02-15T00:11:40;104.10;;;45.30;;
36379;SDS011;22411;53.016;18.632;2023-02-15T00:14:19;95.53;;;45.50;;
36379;SDS011;22411;53.016;18.632;2023-02-15T00:16:50;91.77;;;46.10;;
36379;SDS011;22411;53.016;18.632;2023-02-15T00:19:18;105.07;;;45.90;;
36379;SDS011;22411;53.016;18.632;2023-02-15T00:21:46;80.30;;;44.20;;
36379;SDS011;22411;53.016;18.632;2023-02-15T00:24:13;84.20;;;42.93;;
36379;SDS011;22411;53.016;18.632;2023-02-15T00:26:41;79.00;;;41.90;;
36379;SDS011;22411;53.016;18.632;2023-02-15T00:29:08;88.50;;;44.30;;
36379;SDS011;22411;53.016;18.632;2023-02-15T00:31:36;84.73;;;42.97;;
36379;SDS011;22411;53.016;18.632;2023-02-15T00:34:21;79.27;;;44.13;;
36379;SDS011;22411;53.016;18.632;2023-02-15T00:36:50;82.93;;;41.43;;
36379;SDS011;22411;53.016;18.632;2023-02-15T00:39:16;77.27;;;43.20;;
36379;SDS011;22411;53.016;18.632;2023-02-15T00:41:44;81.77;;;42.43;;
36379;SDS011;22411;53.016;18.632;2023-02-15T00:44:11;81.97;;;43.47;;
36379;SDS011;22411;53.016;18.632;2023-02-15T00:46:38;89.23;;;45.70;;
36379;SDS011;22411;53.016;18.632;2023-02-15T00:49:04;78.50;;;43.57;;
36379;SDS011;22411;53.016;18.632;2023-02-15T00:51:31;90.77;;;42.57;;
36379;SDS011;22411;53.016;18.632;2023-02-15T00:53:57;96.93;;;45.53;;
36379;SDS011;22411;53.016;18.632;2023-02-15T00:56:24;98.77;;;45.13;;
36379;SDS011;22411;53.016;18.632;2023-02-15T00:58:50;83.17;;;43.10;;
36379;SDS011;22411;53.016;18.632;2023-02-15T01:01:17;78.50;;;43.80;;
36379;SDS011;22411;53.016;18.632;2023-02-15T01:03:44;84.67;;;43.80;;
36379;SDS011;22411;53.016;18.632;2023-02-15T01:06:12;106.20;;;45.27;;
36379;SDS011;22411;53.016;18.632;2023-02-15T01:08:39;82.37;;;43.57;;
36379;SDS011;22411;53.016;18.632;2023-02-15T01:11:06;85.07;;;44.73;;
36379;SDS011;22411;53.016;18.632;2023-02-15T01:13:34;96.20;;;46.40;;
36379;SDS011;22411;53.016;18.632;2023-02-15T01:16:01;86.83;;;43.50;;
36379;SDS011;22411;53.016;18.632;2023-02-15T01:18:27;97.50;;;50.03;;
36379;SDS011;22411;53.016;18.632;2023-02-15T01:20:55;117.33;;;50.53;;
36379;SDS011;22411;53.016;18.632;2023-02-15T01:23:21;93.87;;;44.37;;
36379;SDS011;22411;53.016;18.632;2023-02-15T01:25:47;94.80;;;47.00;;
36379;SDS011;22411;53.016;18.632;2023-02-15T01:28:13;90.97;;;47.83;;
36379;SDS011;22411;53.016;18.632;2023-02-15T01:30:39;85.77;;;44.83;;
36379;SDS011;22411;53.016;18.632;2023-02-15T01:33:05;89.30;;;47.20;;
36379;SDS011;22411;53.016;18.632;2023-02-15T01:35:31;138.07;;;49.37;;
36379;SDS011;22411;53.016;18.632;2023-02-15T01:37:57;132.43;;;49.33;;
36379;SDS011;22411;53.016;18.632;2023-02-15T01:40:24;95.20;;;49.00;;
36379;SDS011;22411;53.016;18.632;2023-02-15T01:42:54;107.70;;;51.23;;
36379;SDS011;22411;53.016;18.632;2023-02-15T01:45:23;89.97;;;46.13;;
36379;SDS011;22411;53.016;18.632;2023-02-15T01:48:06;137.80;;;47.60;;
36379;SDS011;22411;53.016;18.632;2023-02-15T01:50:56;99.97;;;46.77;;
36379;SDS011;22411;53.016;18.632;2023-02-15T01:53:30;90.10;;;45.83;;
36379;SDS011;22411;53.016;18.632;2023-02-15T01:56:06;94.57;;;46.00;;
36379;SDS011;22411;53.016;18.632;2023-02-15T01:58:36;94.40;;;47.17;;
36379;SDS011;22411;53.016;18.632;2023-02-15T02:01:03;113.97;;;51.13;;
36379;SDS011;22411;53.016;18.632;2023-02-15T02:06:25;119.33;;;47.40;;
36379;SDS011;22411;53.016;18.632;2023-02-15T02:08:52;98.93;;;46.53;;
36379;SDS011;22411;53.016;18.632;2023-02-15T02:11:20;111.93;;;46.87;;
36379;SDS011;22411;53.016;18.632;2023-02-15T02:13:46;100.13;;;48.87;;
36379;SDS011;22411;53.016;18.632;2023-02-15T02:16:21;87.77;;;45.00;;
36379;SDS011;22411;53.016;18.632;2023-02-15T02:44:08;123.70;;;47.30;;
36379;SDS011;22411;53.016;18.632;2023-02-15T02:46:53;108.43;;;46.30;;
36379;SDS011;22411;53.016;18.632;2023-02-15T02:49:37;125.67;;;47.17;;
36379;SDS011;22411;53.016;18.632;2023-02-15T02:52:06;113.03;;;46.93;;
36379;SDS011;22411;53.016;18.632;2023-02-15T02:54:53;129.60;;;46.23;;
36379;SDS011;22411;53.016;18.632;2023-02-15T02:57:21;87.70;;;44.30;;
36379;SDS011;22411;53.016;18.632;2023-02-15T02:59:49;107.80;;;45.83;;
36379;SDS011;22411;53.016;18.632;2023-02-15T03:02:19;94.17;;;44.93;;
36379;SDS011;22411;53.016;18.632;2023-02-15T03:04:52;119.57;;;46.00;;
36379;SDS011;22411;53.016;18.632;2023-02-15T03:07:29;89.43;;;45.90;;
36379;SDS011;22411;53.016;18.632;2023-02-15T03:09:57;112.47;;;44.27;;
36379;SDS011;22411;53.016;18.632;2023-02-15T03:12:30;85.03;;;41.73;;
36379;SDS011;22411;53.016;18.632;2023-02-15T03:15:20;153.03;;;45.23;;
36379;SDS011;22411;53.016;18.632;2023-02-15T03:18:12;93.90;;;41.77;;
36379;SDS011;22411;53.016;18.632;2023-02-15T03:20:41;96.77;;;42.90;;
36379;SDS011;22411;53.016;18.632;2023-02-15T03:23:10;90.77;;;42.90;;
36379;SDS011;22411;53.016;18.632;2023-02-15T03:25:46;100.30;;;42.40;;
36379;SDS011;22411;53.016;18.632;2023-02-15T03:28:20;83.60;;;40.70;;
36379;SDS011;22411;53.016;18.632;2023-02-15T03:30:53;94.40;;;40.67;;
36379;SDS011;22411;53.016;18.632;2023-02-15T03:33:23;113.20;;;45.10;;
36379;SDS011;22411;53.016;18.632;2023-02-15T03:35:58;123.77;;;44.13;;
36379;SDS011;22411;53.016;18.632;2023-02-15T03:38:53;149.60;;;43.27;;
36379;SDS011;22411;53.016;18.632;2023-02-15T03:41:39;156.87;;;46.30;;
36379;SDS011;22411;53.016;18.632;2023-02-15T03:44:14;89.97;;;40.37;;
36379;SDS011;22411;53.016;18.632;2023-02-15T03:46:46;128.50;;;41.90;;
36379;SDS011;22411;53.016;18.632;2023-02-15T03:49:20;134.33;;;45.00;;
36379;SDS011;22411;53.016;18.632;2023-02-15T03:51:50;103.27;;;44.17;;
36379;SDS011;22411;53.016;18.632;2023-02-15T03:54:27;87.40;;;41.17;;
36379;SDS011;22411;53.016;18.632;2023-02-15T03:57:22;152.10;;;41.90;;
36379;SDS011;22411;53.016;18.632;2023-02-15T04:00:18;108.43;;;37.67;;
36379;SDS011;22411;53.016;18.632;2023-02-15T04:05:32;87.40;;;40.27;;
36379;SDS011;22411;53.016;18.632;2023-02-15T04:07:58;117.23;;;38.23;;
36379;SDS011;22411;53.016;18.632;2023-02-15T04:10:24;108.73;;;41.37;;
36379;SDS011;22411;53.016;18.632;2023-02-15T04:13:09;95.70;;;40.07;;
36379;SDS011;22411;53.016;18.632;2023-02-15T04:15:34;78.93;;;40.53;;
36379;SDS011;22411;53.016;18.632;2023-02-15T04:18:19;91.40;;;40.40;;
36379;SDS011;22411;53.016;18.632;2023-02-15T04:20:45;154.93;;;44.97;;
36379;SDS011;22411;53.016;18.632;2023-02-15T04:23:31;96.97;;;40.80;;
36379;SDS011;22411;53.016;18.632;2023-02-15T04:26:16;108.87;;;41.67;;
36379;SDS011;22411;53.016;18.632;2023-02-15T04:28:42;95.33;;;42.67;;
36379;SDS011;22411;53.016;18.632;2023-02-15T04:31:08;92.63;;;42.80;;
36379;SDS011;22411;53.016;18.632;2023-02-15T04:33:34;95.40;;;40.13;;
36379;SDS011;22411;53.016;18.632;2023-02-15T04:36:01;140.43;;;44.20;;
36379;SDS011;22411;53.016;18.632;2023-02-15T04:38:29;107.80;;;42.63;;
36379;SDS011;22411;53.016;18.632;2023-02-15T04:40:54;119.90;;;42.47;;
36379;SDS011;22411;53.016;18.632;2023-02-15T04:43:21;170.17;;;45.93;;
36379;SDS011;22411;53.016;18.632;2023-02-15T04:45:47;85.93;;;40.37;;
36379;SDS011;22411;53.016;18.632;2023-02-15T04:48:15;100.50;;;42.43;;
36379;SDS011;22411;53.016;18.632;2023-02-15T04:50:41;84.00;;;41.50;;
36379;SDS011;22411;53.016;18.632;2023-02-15T04:53:08;89.40;;;41.13;;
36379;SDS011;22411;53.016;18.632;2023-02-15T04:55:34;103.93;;;46.93;;
36379;SDS011;22411;53.016;18.632;2023-02-15T04:58:00;87.60;;;41.90;;
36379;SDS011;22411;53.016;18.632;2023-02-15T05:00:26;81.37;;;40.80;;
36379;SDS011;22411;53.016;18.632;2023-02-15T05:02:53;86.07;;;42.17;;
36379;SDS011;22411;53.016;18.632;2023-02-15T05:05:19;91.47;;;40.63;;
36379;SDS011;22411;53.016;18.632;2023-02-15T05:07:45;91.47;;;45.17;;
36379;SDS011;22411;53.016;18.632;2023-02-15T05:10:12;94.37;;;40.90;;
36379;SDS011;22411;53.016;18.632;2023-02-15T05:12:38;87.60;;;42.17;;
36379;SDS011;22411;53.016;18.632;2023-02-15T05:15:04;104.70;;;42.17;;
36379;SDS011;22411;53.016;18.632;2023-02-15T05:17:30;91.63;;;41.70;;
36379;SDS011;22411;53.016;18.632;2023-02-15T05:19:56;92.17;;;41.63;;
36379;SDS011;22411;53.016;18.632;2023-02-15T05:22:22;97.93;;;41.67;;
36379;SDS011;22411;53.016;18.632;2023-02-15T05:24:48;89.17;;;41.83;;
36379;SDS011;22411;53.016;18.632;2023-02-15T05:27:33;96.00;;;45.07;;
36379;SDS011;22411;53.016;18.632;2023-02-15T05:30:17;93.63;;;42.47;;
36379;SDS011;22411;53.016;18.632;2023-02-15T05:32:44;88.07;;;40.57;;
36379;SDS011;22411;53.016;18.632;2023-02-15T05:35:12;83.67;;;40.07;;
36379;SDS011;22411;53.016;18.632;2023-02-15T05:37:41;92.37;;;42.57;;
36379;SDS011;22411;53.016;18.632;2023-02-15T05:40:08;94.70;;;46.93;;
36379;SDS011;22411;53.016;18.632;2023-02-15T05:42:34;88.33;;;44.00;;
36379;SDS011;22411;53.016;18.632;2023-02-15T05:45:00;92.33;;;45.13;;
36379;SDS011;22411;53.016;18.632;2023-02-15T05:47:26;95.50;;;43.10;;
36379;SDS011;22411;53.016;18.632;2023-02-15T05:49:52;91.17;;;43.53;;
36379;SDS011;22411;53.016;18.632;2023-02-15T05:52:18;95.67;;;43.93;;
36379;SDS011;22411;53.016;18.632;2023-02-15T05:54:44;93.40;;;41.40;;
36379;SDS011;22411;53.016;18.632;2023-02-15T05:57:10;102.03;;;44.90;;
36379;SDS011;22411;53.016;18.632;2023-02-15T05:59:36;93.93;;;41.70;;
36379;SDS011;22411;53.016;18.632;2023-02-15T06:02:02;93.00;;;45.53;;
36379;SDS011;22411;53.016;18.632;2023-02-15T06:04:28;91.00;;;43.17;;
36379;SDS011;22411;53.016;18.632;2023-02-15T06:06:54;96.33;;;45.43;;
36379;SDS011;22411;53.016;18.632;2023-02-15T06:09:20;92.53;;;44.90;;
36379;SDS011;22411;53.016;18.632;2023-02-15T06:11:46;100.90;;;46.50;;
36379;SDS011;22411;53.016;18.632;2023-02-15T06:14:12;92.53;;;45.83;;
36379;SDS011;22411;53.016;18.632;2023-02-15T06:16:38;90.67;;;44.17;;
36379;SDS011;22411;53.016;18.632;2023-02-15T06:19:04;100.20;;;46.63;;
36379;SDS011;22411;53.016;18.632;2023-02-15T06:21:30;88.13;;;46.07;;
36379;SDS011;22411;53.016;18.632;2023-02-15T06:23:56;103.57;;;48.00;;
36379;SDS011;22411;53.016;18.632;2023-02-15T06:26:23;98.70;;;49.77;;
36379;SDS011;22411;53.016;18.632;2023-02-15T06:28:49;108.57;;;51.33;;
36379;SDS011;22411;53.016;18.632;2023-02-15T06:31:15;102.00;;;49.67;;
36379;SDS011;22411;53.016;18.632;2023-02-15T06:33:40;105.10;;;50.13;;
36379;SDS011;22411;53.016;18.632;2023-02-15T06:36:07;102.47;;;50.97;;
36379;SDS011;22411;53.016;18.632;2023-02-15T06:38:33;97.03;;;48.80;;
36379;SDS011;22411;53.016;18.632;2023-02-15T06:40:59;100.33;;;47.43;;
36379;SDS011;22411;53.016;18.632;2023-02-15T06:43:25;104.30;;;47.20;;
36379;SDS011;22411;53.016;18.632;2023-02-15T06:45:51;109.07;;;52.00;;
36379;SDS011;22411;53.016;18.632;2023-02-15T06:48:17;97.83;;;46.37;;
36379;SDS011;22411;53.016;18.632;2023-02-15T06:50:43;102.03;;;48.80;;
36379;SDS011;22411;53.016;18.632;2023-02-15T06:53:09;102.03;;;49.57;;
36379;SDS011;22411;53.016;18.632;2023-02-15T06:55:35;98.43;;;47.57;;
36379;SDS011;22411;53.016;18.632;2023-02-15T06:58:01;100.50;;;48.27;;
36379;SDS011;22411;53.016;18.632;2023-02-15T07:00:27;92.73;;;48.23;;
36379;SDS011;22411;53.016;18.632;2023-02-15T07:02:53;102.33;;;50.50;;
36379;SDS011;22411;53.016;18.632;2023-02-15T07:05:24;113.07;;;51.85;;
36379;SDS011;22411;53.016;18.632;2023-02-15T07:07:57;102.53;;;49.77;;
36379;SDS011;22411;53.016;18.632;2023-02-15T07:10:24;110.90;;;52.10;;
36379;SDS011;22411;53.016;18.632;2023-02-15T07:12:50;103.67;;;51.73;;
36379;SDS011;22411;53.016;18.632;2023-02-15T07:15:17;102.30;;;50.93;;
36379;SDS011;22411;53.016;18.632;2023-02-15T07:17:46;108.47;;;49.73;;
36379;SDS011;22411;53.016;18.632;2023-02-15T07:20:14;106.93;;;51.63;;
36379;SDS011;22411;53.016;18.632;2023-02-15T07:22:44;116.10;;;53.57;;
36379;SDS011;22411;53.016;18.632;2023-02-15T07:25:11;107.77;;;49.93;;
36379;SDS011;22411;53.016;18.632;2023-02-15T07:27:37;104.83;;;51.13;;
36379;SDS011;22411;53.016;18.632;2023-02-15T07:30:04;104.97;;;50.20;;
36379;SDS011;22411;53.016;18.632;2023-02-15T07:32:32;108.03;;;54.90;;
36379;SDS011;22411;53.016;18.632;2023-02-15T07:34:58;102.63;;;52.10;;
36379;SDS011;22411;53.016;18.632;2023-02-15T07:37:25;107.67;;;54.57;;
36379;SDS011;22411;53.016;18.632;2023-02-15T07:39:52;101.33;;;51.40;;
36379;SDS011;22411;53.016;18.632;2023-02-15T07:42:18;101.47;;;54.30;;
36379;SDS011;22411;53.016;18.632;2023-02-15T07:44:45;102.33;;;54.03;;
36379;SDS011;22411;53.016;18.632;2023-02-15T07:47:11;107.13;;;57.70;;
36379;SDS011;22411;53.016;18.632;2023-02-15T07:49:37;97.53;;;54.53;;
36379;SDS011;22411;53.016;18.632;2023-02-15T07:52:03;95.93;;;53.33;;
36379;SDS011;22411;53.016;18.632;2023-02-15T07:54:30;101.30;;;55.63;;
36379;SDS011;22411;53.016;18.632;2023-02-15T07:56:56;103.37;;;55.47;;
36379;SDS011;22411;53.016;18.632;2023-02-15T07:59:22;102.97;;;56.37;;
36379;SDS011;22411;53.016;18.632;2023-02-15T08:01:49;98.13;;;53.73;;
36379;SDS011;22411;53.016;18.632;2023-02-15T08:04:15;99.10;;;54.07;;
36379;SDS011;22411;53.016;18.632;2023-02-15T08:06:43;98.10;;;55.00;;
36379;SDS011;22411;53.016;18.632;2023-02-15T08:09:09;106.17;;;56.93;;
36379;SDS011;22411;53.016;18.632;2023-02-15T08:11:36;100.07;;;53.80;;
36379;SDS011;22411;53.016;18.632;2023-02-15T08:16:42;105.13;;;55.87;;
36379;SDS011;22411;53.016;18.632;2023-02-15T08:21:41;97.60;;;52.37;;
36379;SDS011;22411;53.016;18.632;2023-02-15T08:26:41;101.23;;;55.23;;
36379;SDS011;22411;53.016;18.632;2023-02-15T08:29:09;105.17;;;56.40;;
36379;SDS011;22411;53.016;18.632;2023-02-15T08:31:35;107.93;;;57.93;;
36379;SDS011;22411;53.016;18.632;2023-02-15T08:34:03;101.87;;;56.93;;
36379;SDS011;22411;53.016;18.632;2023-02-15T08:36:30;113.47;;;60.27;;
36379;SDS011;22411;53.016;18.632;2023-02-15T08:38:57;103.83;;;61.33;;
36379;SDS011;22411;53.016;18.632;2023-02-15T08:41:26;108.43;;;61.60;;
36379;SDS011;22411;53.016;18.632;2023-02-15T08:43:56;104.00;;;57.05;;
36379;SDS011;22411;53.016;18.632;2023-02-15T08:46:24;98.20;;;55.17;;
36379;SDS011;22411;53.016;18.632;2023-02-15T08:48:52;122.73;;;85.70;;
36379;SDS011;22411;53.016;18.632;2023-02-15T08:51:19;111.43;;;66.60;;
36379;SDS011;22411;53.016;18.632;2023-02-15T08:53:48;98.43;;;55.37;;
36379;SDS011;22411;53.016;18.632;2023-02-15T08:56:15;91.73;;;52.70;;
36379;SDS011;22411;53.016;18.632;2023-02-15T08:58:43;99.63;;;55.90;;
36379;SDS011;22411;53.016;18.632;2023-02-15T09:01:10;90.23;;;54.27;;
36379;SDS011;22411;53.016;18.632;2023-02-15T09:03:44;85.83;;;49.77;;
36379;SDS011;22411;53.016;18.632;2023-02-15T09:06:11;82.00;;;47.50;;
36379;SDS011;22411;53.016;18.632;2023-02-15T09:08:37;89.30;;;52.67;;
36379;SDS011;22411;53.016;18.632;2023-02-15T09:11:07;76.93;;;45.63;;
36379;SDS011;22411;53.016;18.632;2023-02-15T09:13:34;82.15;;;47.75;;
36379;SDS011;22411;53.016;18.632;2023-02-15T09:16:01;74.87;;;44.93;;
36379;SDS011;22411;53.016;18.632;2023-02-15T09:18:30;70.37;;;44.97;;
36379;SDS011;22411;53.016;18.632;2023-02-15T09:21:05;57.40;;;35.20;;
36379;SDS011;22411;53.016;18.632;2023-02-15T09:23:34;68.73;;;45.70;;
36379;SDS011;22411;53.016;18.632;2023-02-15T09:26:01;63.83;;;39.53;;
36379;SDS011;22411;53.016;18.632;2023-02-15T09:28:33;72.57;;;41.07;;
36379;SDS011;22411;53.016;18.632;2023-02-15T09:33:42;56.43;;;32.57;;
36379;SDS011;22411;53.016;18.632;2023-02-15T09:36:14;58.77;;;34.13;;
36379;SDS011;22411;53.016;18.632;2023-02-15T09:38:45;48.80;;;32.17;;
36379;SDS011;22411;53.016;18.632;2023-02-15T09:49:40;48.57;;;30.90;;
36379;SDS011;22411;53.016;18.632;2023-02-15T09:55:22;46.40;;;28.67;;
36379;SDS011;22411;53.016;18.632;2023-02-15T09:58:17;47.67;;;28.93;;
36379;SDS011;22411;53.016;18.632;2023-02-15T10:01:04;46.80;;;29.10;;
36379;SDS011;22411;53.016;18.632;2023-02-15T10:03:50;41.77;;;28.40;;
36379;SDS011;22411;53.016;18.632;2023-02-15T10:06:34;43.33;;;25.73;;
36379;SDS011;22411;53.016;18.632;2023-02-15T10:23:15;45.87;;;26.57;;
36379;SDS011;22411;53.016;18.632;2023-02-15T10:31:23;47.38;;;27.95;;
36379;SDS011;22411;53.016;18.632;2023-02-15T10:34:16;44.05;;;27.05;;
36379;SDS011;22411;53.016;18.632;2023-02-15T10:45:07;53.77;;;34.60;;
36379;SDS011;22411;53.016;18.632;2023-02-15T10:47:50;54.20;;;40.60;;
36379;SDS011;22411;53.016;18.632;2023-02-15T10:50:35;50.20;;;31.13;;
36379;SDS011;22411;53.016;18.632;2023-02-15T10:53:24;50.13;;;30.03;;
36379;SDS011;22411;53.016;18.632;2023-02-15T11:02:09;56.23;;;35.23;;
36379;SDS011;22411;53.016;18.632;2023-02-15T11:04:48;61.37;;;34.97;;
36379;SDS011;22411;53.016;18.632;2023-02-15T11:07:48;55.73;;;33.13;;
36379;SDS011;22411;53.016;18.632;2023-02-15T11:12:57;63.00;;;34.83;;
36379;SDS011;22411;53.016;18.632;2023-02-15T11:15:32;57.93;;;34.63;;
36379;SDS011;22411;53.016;18.632;2023-02-15T11:18:09;61.90;;;35.40;;
36379;SDS011;22411;53.016;18.632;2023-02-15T11:20:52;68.67;;;37.40;;
36379;SDS011;22411;53.016;18.632;2023-02-15T11:23:23;59.30;;;34.20;;
36379;SDS011;22411;53.016;18.632;2023-02-15T11:25:55;59.13;;;32.93;;
36379;SDS011;22411;53.016;18.632;2023-02-15T11:28:24;59.37;;;34.00;;
36379;SDS011;22411;53.016;18.632;2023-02-15T11:30:55;59.03;;;32.43;;
36379;SDS011;22411;53.016;18.632;2023-02-15T11:36:03;65.00;;;36.70;;
36379;SDS011;22411;53.016;18.632;2023-02-15T11:38:35;59.23;;;32.57;;
36379;SDS011;22411;53.016;18.632;2023-02-15T11:43:39;62.97;;;37.73;;
36379;SDS011;22411;53.016;18.632;2023-02-15T11:46:13;62.57;;;38.43;;
36379;SDS011;22411;53.016;18.632;2023-02-15T11:48:40;61.13;;;36.23;;
36379;SDS011;22411;53.016;18.632;2023-02-15T11:51:11;64.13;;;37.90;;
36379;SDS011;22411;53.016;18.632;2023-02-15T11:53:44;63.53;;;38.87;;
36379;SDS011;22411;53.016;18.632;2023-02-15T11:56:45;62.23;;;37.53;;
36379;SDS011;22411;53.016;18.632;2023-02-15T11:59:06;65.13;;;41.40;;
36379;SDS011;22411;53.016;18.632;2023-02-15T12:01:41;99.17;;;69.13;;
36379;SDS011;22411;53.016;18.632;2023-02-15T12:06:43;76.90;;;46.93;;
36379;SDS011;22411;53.016;18.632;2023-02-15T12:14:55;115.53;;;65.33;;
36379;SDS011;22411;53.016;18.632;2023-02-15T12:17:23;70.13;;;39.87;;
36379;SDS011;22411;53.016;18.632;2023-02-15T12:19:52;54.17;;;35.50;;
36379;SDS011;22411;53.016;18.632;2023-02-15T12:22:25;112.23;;;68.13;;
36379;SDS011;22411;53.016;18.632;2023-02-15T12:24:59;55.43;;;35.27;;
36379;SDS011;22411;53.016;18.632;2023-02-15T12:27:28;49.50;;;30.93;;
36379;SDS011;22411;53.016;18.632;2023-02-15T12:30:39;93.57;;;59.17;;
36379;SDS011;22411;53.016;18.632;2023-02-15T12:33:00;114.77;;;81.97;;
36379;SDS011;22411;53.016;18.632;2023-02-15T12:36:02;81.13;;;52.57;;
36379;SDS011;22411;53.016;18.632;2023-02-15T12:38:36;64.53;;;41.10;;
36379;SDS011;22411;53.016;18.632;2023-02-15T12:43:47;63.63;;;38.40;;
36379;SDS011;22411;53.016;18.632;2023-02-15T12:46:37;55.03;;;35.57;;
36379;SDS011;22411;53.016;18.632;2023-02-15T12:49:07;59.77;;;39.20;;
36379;SDS011;22411;53.016;18.632;2023-02-15T12:52:00;58.70;;;34.73;;
36379;SDS011;22411;53.016;18.632;2023-02-15T12:54:29;55.85;;;36.13;;
36379;SDS011;22411;53.016;18.632;2023-02-15T13:00:39;49.03;;;29.43;;
36379;SDS011;22411;53.016;18.632;2023-02-15T13:02:57;41.70;;;26.50;;
36379;SDS011;22411;53.016;18.632;2023-02-15T13:05:35;66.87;;;46.37;;
36379;SDS011;22411;53.016;18.632;2023-02-15T13:10:52;57.10;;;38.33;;
36379;SDS011;22411;53.016;18.632;2023-02-15T13:13:27;92.07;;;49.70;;
36379;SDS011;22411;53.016;18.632;2023-02-15T13:15:59;68.63;;;38.70;;
36379;SDS011;22411;53.016;18.632;2023-02-15T13:18:33;50.70;;;28.70;;
36379;SDS011;22411;53.016;18.632;2023-02-15T13:21:15;54.03;;;32.37;;
36379;SDS011;22411;53.016;18.632;2023-02-15T13:23:46;64.60;;;40.37;;
36379;SDS011;22411;53.016;18.632;2023-02-15T13:26:15;53.45;;;31.35;;
36379;SDS011;22411;53.016;18.632;2023-02-15T13:28:49;51.92;;;29.33;;
36379;SDS011;22411;53.016;18.632;2023-02-15T13:31:20;50.77;;;31.40;;
36379;SDS011;22411;53.016;18.632;2023-02-15T13:36:57;49.67;;;29.73;;
36379;SDS011;22411;53.016;18.632;2023-02-15T13:42:53;57.63;;;31.47;;
36379;SDS011;22411;53.016;18.632;2023-02-15T13:46:06;76.87;;;56.33;;
36379;SDS011;22411;53.016;18.632;2023-02-15T13:48:36;72.80;;;50.37;;
36379;SDS011;22411;53.016;18.632;2023-02-15T13:51:43;107.90;;;86.53;;
36379;SDS011;22411;53.016;18.632;2023-02-15T13:56:52;88.87;;;65.30;;
36379;SDS011;22411;53.016;18.632;2023-02-15T14:02:18;56.00;;;34.60;;
36379;SDS011;22411;53.016;18.632;2023-02-15T14:19:03;52.20;;;30.37;;
36379;SDS011;22411;53.016;18.632;2023-02-15T14:21:53;59.47;;;36.42;;
36379;SDS011;22411;53.016;18.632;2023-02-15T14:24:39;72.70;;;51.03;;
36379;SDS011;22411;53.016;18.632;2023-02-15T14:27:39;72.63;;;50.35;;
36379;SDS011;22411;53.016;18.632;2023-02-15T14:32:51;60.67;;;42.73;;
36379;SDS011;22411;53.016;18.632;2023-02-15T14:35:25;64.13;;;40.00;;
36379;SDS011;22411;53.016;18.632;2023-02-15T14:37:55;62.57;;;38.33;;
36379;SDS011;22411;53.016;18.632;2023-02-15T14:43:40;75.97;;;49.97;;
36379;SDS011;22411;53.016;18.632;2023-02-15T14:48:56;70.07;;;46.77;;
36379;SDS011;22411;53.016;18.632;2023-02-15T14:54:08;53.45;;;36.10;;
36379;SDS011;22411;53.016;18.632;2023-02-15T14:56:35;56.40;;;30.33;;
36379;SDS011;22411;53.016;18.632;2023-02-15T14:59:11;63.53;;;42.57;;
36379;SDS011;22411;53.016;18.632;2023-02-15T15:01:40;50.13;;;28.73;;
36379;SDS011;22411;53.016;18.632;2023-02-15T15:09:33;91.57;;;69.90;;
36379;SDS011;22411;53.016;18.632;2023-02-15T15:12:13;78.20;;;51.90;;
36379;SDS011;22411;53.016;18.632;2023-02-15T15:14:52;61.53;;;39.57;;
36379;SDS011;22411;53.016;18.632;2023-02-15T15:25:49;67.47;;;41.22;;
36379;SDS011;22411;53.016;18.632;2023-02-15T15:31:08;58.45;;;34.83;;
36379;SDS011;22411;53.016;18.632;2023-02-15T15:45:16;55.77;;;31.87;;
36379;SDS011;22411;53.016;18.632;2023-02-15T15:48:14;64.03;;;36.83;;
36379;SDS011;22411;53.016;18.632;2023-02-15T15:50:38;60.77;;;33.00;;
36379;SDS011;22411;53.016;18.632;2023-02-15T15:53:06;60.97;;;32.63;;
36379;SDS011;22411;53.016;18.632;2023-02-15T15:55:43;64.30;;;34.27;;
36379;SDS011;22411;53.016;18.632;2023-02-15T15:58:13;84.30;;;45.97;;
36379;SDS011;22411;53.016;18.632;2023-02-15T16:00:46;70.40;;;37.75;;
36379;SDS011;22411;53.016;18.632;2023-02-15T16:03:15;65.38;;;35.05;;
36379;SDS011;22411;53.016;18.632;2023-02-15T16:05:49;66.37;;;37.10;;
36379;SDS011;22411;53.016;18.632;2023-02-15T16:08:28;65.50;;;35.73;;
36379;SDS011;22411;53.016;18.632;2023-02-15T16:11:10;62.93;;;32.70;;
36379;SDS011;22411;53.016;18.632;2023-02-15T16:13:41;74.38;;;42.65;;
36379;SDS011;22411;53.016;18.632;2023-02-15T16:16:11;62.50;;;33.93;;
36379;SDS011;22411;53.016;18.632;2023-02-15T16:18:38;68.20;;;36.30;;
36379;SDS011;22411;53.016;18.632;2023-02-15T16:21:18;88.23;;;49.70;;
36379;SDS011;22411;53.016;18.632;2023-02-15T16:29:55;97.07;;;60.40;;
36379;SDS011;22411;53.016;18.632;2023-02-15T16:32:22;87.00;;;47.43;;
36379;SDS011;22411;53.016;18.632;2023-02-15T16:34:59;80.20;;;41.33;;
36379;SDS011;22411;53.016;18.632;2023-02-15T16:37:33;63.43;;;33.13;;
36379;SDS011;22411;53.016;18.632;2023-02-15T16:40:00;73.37;;;41.00;;
36379;SDS011;22411;53.016;18.632;2023-02-15T16:42:27;113.20;;;68.50;;
36379;SDS011;22411;53.016;18.632;2023-02-15T16:45:12;121.60;;;70.83;;
36379;SDS011;22411;53.016;18.632;2023-02-15T16:47:46;65.43;;;34.13;;
36379;SDS011;22411;53.016;18.632;2023-02-15T16:50:19;86.60;;;52.80;;
36379;SDS011;22411;53.016;18.632;2023-02-15T16:52:49;93.47;;;60.70;;
36379;SDS011;22411;53.016;18.632;2023-02-15T16:55:23;73.50;;;43.30;;
36379;SDS011;22411;53.016;18.632;2023-02-15T16:58:11;72.90;;;39.90;;
36379;SDS011;22411;53.016;18.632;2023-02-15T17:00:41;66.37;;;38.07;;
36379;SDS011;22411;53.016;18.632;2023-02-15T17:05:52;65.20;;;34.45;;
36379;SDS011;22411;53.016;18.632;2023-02-15T17:08:34;64.10;;;34.87;;
36379;SDS011;22411;53.016;18.632;2023-02-15T17:11:13;73.30;;;42.47;;
36379;SDS011;22411;53.016;18.632;2023-02-15T17:17:13;72.37;;;39.77;;
36379;SDS011;22411;53.016;18.632;2023-02-15T17:19:26;99.80;;;55.03;;
36379;SDS011;22411;53.016;18.632;2023-02-15T17:21:55;77.60;;;43.13;;
36379;SDS011;22411;53.016;18.632;2023-02-15T17:27:05;74.10;;;38.50;;
36379;SDS011;22411;53.016;18.632;2023-02-15T17:30:00;77.23;;;39.93;;
36379;SDS011;22411;53.016;18.632;2023-02-15T17:33:02;77.57;;;40.63;;
36379;SDS011;22411;53.016;18.632;2023-02-15T17:36:01;70.83;;;36.03;;
36379;SDS011;22411;53.016;18.632;2023-02-15T17:39:06;68.47;;;36.30;;
36379;SDS011;22411;53.016;18.632;2023-02-15T17:41:48;74.73;;;39.63;;
36379;SDS011;22411;53.016;18.632;2023-02-15T17:44:18;77.50;;;35.97;;
36379;SDS011;22411;53.016;18.632;2023-02-15T17:46:44;76.37;;;37.83;;